Time;durP1;ratioP1;P1;durP2;ratioP2;P2;SDS_P1;SDS_P2;PMS_P1;PMS_P2;Temp;Humidity;BMP_temperature;BMP_pressure;BME280_temperature;BME280_humidity;BME280_pressure;Samples;Min_cycle;Max_cycle;Signal;HPM_P1;HPM_P2
2023/05/29 00:02:25;;;;;;;6.82;3.47;;;;;;;;;;5019778;28;20414;-75
2023/05/29 00:04:50;;;;;;;7.53;3.90;;;;;;;;;;5020726;28;20083;-72
2023/05/29 00:07:16;;;;;;;6.72;3.30;;;;;;;;;;5020501;28;20107;-75
2023/05/29 00:09:41;;;;;;;5.38;3.30;;;;;;;;;;5019891;28;20098;-75
2023/05/29 00:12:07;;;;;;;5.80;3.72;;;;;;;;;;5013230;28;20045;-74
2023/05/29 00:14:32;;;;;;;4.75;3.22;;;;;;;;;;5019740;28;20057;-76
2023/05/29 00:16:58;;;;;;;10.90;3.80;;;;;;;;;;5020615;28;20064;-74
2023/05/29 00:19:27;;;;;;;6.68;3.75;;;;;;;;;;5018435;28;20095;-74
2023/05/29 00:21:53;;;;;;;5.68;3.70;;;;;;;;;;5020216;28;20045;-74
2023/05/29 00:24:19;;;;;;;7.63;3.97;;;;;;;;;;5020221;28;20050;-75
2023/05/29 00:26:45;;;;;;;10.15;3.88;;;;;;;;;;5019651;28;20060;-75
2023/05/29 00:29:11;;;;;;;5.18;3.50;;;;;;;;;;5020282;28;20037;-76
2023/05/29 00:31:36;;;;;;;7.10;3.85;;;;;;;;;;5017577;28;20049;-74
2023/05/29 00:34:02;;;;;;;7.90;4.20;;;;;;;;;;5034666;28;20080;-75
2023/05/29 00:36:29;;;;;;;11.20;4.65;;;;;;;;;;5034506;28;20049;-76
2023/05/29 00:38:55;;;;;;;6.32;4.15;;;;;;;;;;5026277;28;20053;-74
2023/05/29 00:41:20;;;;;;;7.85;4.13;;;;;;;;;;5017854;28;20057;-75
2023/05/29 00:43:46;;;;;;;9.43;4.10;;;;;;;;;;5020318;28;20055;-76
2023/05/29 00:46:14;;;;;;;9.82;3.92;;;;;;;;;;5018748;28;20049;-75
2023/05/29 00:48:41;;;;;;;9.20;3.90;;;;;;;;;;5008700;28;20041;-75
2023/05/29 00:51:09;;;;;;;10.65;4.25;;;;;;;;;;5019332;28;20041;-75
2023/05/29 00:53:35;;;;;;;8.15;4.20;;;;;;;;;;5026903;28;20099;-74
2023/05/29 00:56:02;;;;;;;11.35;4.38;;;;;;;;;;5034726;28;20045;-75
2023/05/29 00:58:27;;;;;;;10.57;4.15;;;;;;;;;;5017720;28;20124;-75
2023/05/29 01:00:53;;;;;;;10.32;3.97;;;;;;;;;;5020282;28;20141;-75
2023/05/29 01:03:20;;;;;;;6.20;3.83;;;;;;;;;;5033432;28;20107;-75
2023/05/29 01:05:46;;;;;;;8.75;4.03;;;;;;;;;;5016136;28;20060;-75
2023/05/29 01:08:12;;;;;;;5.65;3.55;;;;;;;;;;5023586;28;20053;-74
2023/05/29 01:10:38;;;;;;;6.95;4.30;;;;;;;;;;5017222;28;20049;-74
2023/05/29 01:13:13;;;;;;;7.13;4.10;;;;;;;;;;5020685;28;20051;-75
2023/05/29 01:15:49;;;;;;;10.10;3.72;;;;;;;;;;5024117;28;20387;-75
2023/05/29 01:18:34;;;;;;;6.60;3.90;;;;;;;;;;5018568;28;20075;-76
2023/05/29 01:21:08;;;;;;;5.80;3.90;;;;;;;;;;5024208;28;20133;-76
2023/05/29 01:23:52;;;;;;;6.50;3.75;;;;;;;;;;5019808;28;20144;-74
2023/05/29 01:26:47;;;;;;;8.82;4.15;;;;;;;;;;5019237;28;20056;-74
2023/05/29 01:29:15;;;;;;;8.18;4.50;;;;;;;;;;5013464;28;20076;-76
2023/05/29 01:31:43;;;;;;;7.70;3.92;;;;;;;;;;4994979;28;20066;-74
2023/05/29 01:34:09;;;;;;;7.75;4.35;;;;;;;;;;5022885;28;20406;-76
2023/05/29 01:36:35;;;;;;;12.02;4.22;;;;;;;;;;5020498;28;20049;-75
2023/05/29 01:39:02;;;;;;;8.80;4.15;;;;;;;;;;5028437;28;20049;-75
2023/05/29 01:41:29;;;;;;;5.88;4.40;;;;;;;;;;5019481;28;20051;-74
2023/05/29 01:43:56;;;;;;;7.38;4.18;;;;;;;;;;5022057;28;20045;-74
2023/05/29 01:46:21;;;;;;;9.30;5.25;;;;;;;;;;5021923;28;20097;-74
2023/05/29 01:48:47;;;;;;;8.48;4.57;;;;;;;;;;5020166;28;20085;-75
2023/05/29 01:51:13;;;;;;;10.18;4.28;;;;;;;;;;5027797;28;20057;-74
2023/05/29 01:53:39;;;;;;;8.77;4.63;;;;;;;;;;5020947;28;20091;-74
2023/05/29 01:56:06;;;;;;;7.20;4.53;;;;;;;;;;5005027;28;20490;-71
2023/05/29 01:58:33;;;;;;;8.98;4.50;;;;;;;;;;5020270;28;20128;-73
2023/05/29 02:00:59;;;;;;;8.23;4.75;;;;;;;;;;5012944;28;20053;-72
2023/05/29 02:03:28;;;;;;;10.02;4.88;;;;;;;;;;5020577;28;20671;-72
2023/05/29 02:05:55;;;;;;;7.13;4.57;;;;;;;;;;5022572;28;20083;-75
2023/05/29 02:08:20;;;;;;;16.63;4.63;;;;;;;;;;5021175;28;20464;-75
2023/05/29 02:10:46;;;;;;;6.22;4.47;;;;;;;;;;5019747;28;20049;-73
2023/05/29 02:13:11;;;;;;;10.60;4.45;;;;;;;;;;5022733;28;20049;-71
2023/05/29 02:15:37;;;;;;;9.50;4.65;;;;;;;;;;5037626;28;20038;-72
2023/05/29 02:18:02;;;;;;;7.15;4.43;;;;;;;;;;5037866;28;20053;-75
2023/05/29 02:20:28;;;;;;;6.80;3.92;;;;;;;;;;5003405;28;20049;-75
2023/05/29 02:22:53;;;;;;;8.15;4.75;;;;;;;;;;5020854;28;20041;-72
2023/05/29 02:25:19;;;;;;;7.63;4.93;;;;;;;;;;5037253;28;20053;-72
2023/05/29 02:27:44;;;;;;;8.60;4.43;;;;;;;;;;5022865;28;20068;-72
2023/05/29 02:30:11;;;;;;;8.55;4.50;;;;;;;;;;5039470;28;20136;-72
2023/05/29 02:32:36;;;;;;;8.85;4.90;;;;;;;;;;5022070;28;20494;-73
2023/05/29 02:35:04;;;;;;;7.40;5.25;;;;;;;;;;5030935;28;20049;-74
2023/05/29 02:37:30;;;;;;;7.70;4.72;;;;;;;;;;5022691;28;20118;-72
2023/05/29 02:39:55;;;;;;;8.10;4.80;;;;;;;;;;5021019;28;20041;-74
2023/05/29 02:42:20;;;;;;;9.82;5.35;;;;;;;;;;5020999;28;20061;-72
2023/05/29 02:44:46;;;;;;;7.93;4.78;;;;;;;;;;5037239;28;20950;-73
2023/05/29 02:47:12;;;;;;;10.48;4.90;;;;;;;;;;5037800;28;20142;-72
2023/05/29 02:49:37;;;;;;;8.75;5.03;;;;;;;;;;5023731;28;20092;-73
2023/05/29 02:52:03;;;;;;;8.60;4.75;;;;;;;;;;5022503;28;20123;-73
2023/05/29 02:54:29;;;;;;;9.18;5.20;;;;;;;;;;5035048;28;20045;-71
2023/05/29 02:56:54;;;;;;;12.55;5.40;;;;;;;;;;5010398;28;20037;-71
2023/05/29 02:59:19;;;;;;;6.75;4.72;;;;;;;;;;5019912;28;20057;-73
2023/05/29 03:01:47;;;;;;;8.15;4.80;;;;;;;;;;5021675;28;20057;-72
2023/05/29 03:04:12;;;;;;;9.63;5.10;;;;;;;;;;5020793;28;20064;-72
2023/05/29 03:06:38;;;;;;;10.18;4.28;;;;;;;;;;5036061;28;20049;-72
2023/05/29 03:09:06;;;;;;;16.58;5.93;;;;;;;;;;5021581;28;20084;-71
2023/05/29 03:11:32;;;;;;;11.13;5.43;;;;;;;;;;5024796;28;20148;-72
2023/05/29 03:13:58;;;;;;;14.18;6.45;;;;;;;;;;5019701;28;20478;-73
2023/05/29 03:16:25;;;;;;;9.45;5.18;;;;;;;;;;5018367;28;20071;-71
2023/05/29 03:18:51;;;;;;;9.52;5.57;;;;;;;;;;5020822;28;20430;-70
2023/05/29 03:21:19;;;;;;;8.52;5.55;;;;;;;;;;5013526;28;20741;-71
2023/05/29 03:23:44;;;;;;;15.82;6.18;;;;;;;;;;5024188;28;20049;-74
2023/05/29 03:26:10;;;;;;;16.33;5.95;;;;;;;;;;5020271;28;20053;-72
2023/05/29 03:28:37;;;;;;;11.00;6.32;;;;;;;;;;5008201;28;20073;-72
2023/05/29 03:31:07;;;;;;;10.40;6.22;;;;;;;;;;5027807;28;20046;-71
2023/05/29 03:33:33;;;;;;;9.27;5.90;;;;;;;;;;5011624;28;20045;-72
2023/05/29 03:36:09;;;;;;;10.00;5.55;;;;;;;;;;5036274;28;20099;-73
2023/05/29 03:38:34;;;;;;;9.40;6.00;;;;;;;;;;5019832;28;20994;-72
2023/05/29 03:41:00;;;;;;;10.98;5.50;;;;;;;;;;5018788;28;20077;-72
2023/05/29 03:43:26;;;;;;;10.60;6.00;;;;;;;;;;5023550;28;20472;-73
2023/05/29 03:45:52;;;;;;;10.77;5.43;;;;;;;;;;5035505;28;20037;-72
2023/05/29 03:48:17;;;;;;;10.68;5.85;;;;;;;;;;5019873;28;20044;-74
2023/05/29 03:50:46;;;;;;;8.85;5.72;;;;;;;;;;5023108;28;20134;-74
2023/05/29 03:53:12;;;;;;;9.52;5.60;;;;;;;;;;5017654;28;20041;-73
2023/05/29 03:55:38;;;;;;;8.85;5.50;;;;;;;;;;5019660;28;20049;-73
2023/05/29 03:58:06;;;;;;;9.38;5.97;;;;;;;;;;5024697;28;20073;-73
2023/05/29 04:00:32;;;;;;;9.90;5.88;;;;;;;;;;5033854;28;21201;-73
2023/05/29 04:03:01;;;;;;;15.50;6.28;;;;;;;;;;5003594;28;20411;-73
2023/05/29 04:05:27;;;;;;;10.68;5.50;;;;;;;;;;5035857;28;20053;-72
2023/05/29 04:07:52;;;;;;;11.80;5.50;;;;;;;;;;5034891;28;20045;-73
2023/05/29 04:10:18;;;;;;;7.93;5.25;;;;;;;;;;5034812;28;20099;-73
2023/05/29 04:12:43;;;;;;;8.70;5.55;;;;;;;;;;5034093;28;20652;-72
2023/05/29 04:15:09;;;;;;;8.07;5.07;;;;;;;;;;5035040;28;20061;-72
2023/05/29 04:17:34;;;;;;;12.07;5.63;;;;;;;;;;5036079;28;20048;-72
2023/05/29 04:20:05;;;;;;;9.45;5.70;;;;;;;;;;5036053;28;20050;-71
2023/05/29 04:22:31;;;;;;;11.53;6.00;;;;;;;;;;5026233;28;20050;-71
2023/05/29 04:24:57;;;;;;;10.90;5.75;;;;;;;;;;5020185;28;20059;-72
2023/05/29 04:27:22;;;;;;;8.02;5.72;;;;;;;;;;5035715;28;20053;-72
2023/05/29 04:29:48;;;;;;;12.43;5.38;;;;;;;;;;5019031;28;20052;-73
2023/05/29 04:32:13;;;;;;;8.23;5.32;;;;;;;;;;5024739;28;20069;-72
2023/05/29 04:34:39;;;;;;;11.65;5.47;;;;;;;;;;5026315;28;20122;-72
2023/05/29 04:37:05;;;;;;;11.07;5.55;;;;;;;;;;5021052;28;20045;-71
2023/05/29 04:39:31;;;;;;;12.52;5.45;;;;;;;;;;5019815;28;20053;-71
2023/05/29 04:42:01;;;;;;;10.85;5.75;;;;;;;;;;5019267;28;20047;-72
2023/05/29 04:44:26;;;;;;;8.43;5.50;;;;;;;;;;5017018;28;20103;-72
2023/05/29 04:46:53;;;;;;;8.82;5.57;;;;;;;;;;5035388;28;20577;-72
2023/05/29 04:49:20;;;;;;;14.55;5.75;;;;;;;;;;5026674;28;20137;-71
2023/05/29 04:51:46;;;;;;;10.48;5.22;;;;;;;;;;5018775;28;20111;-72
2023/05/29 04:54:12;;;;;;;6.88;5.35;;;;;;;;;;5018035;28;20045;-73
2023/05/29 04:56:42;;;;;;;7.90;4.97;;;;;;;;;;5017780;28;20081;-72
2023/05/29 04:59:10;;;;;;;8.18;4.88;;;;;;;;;;5036336;28;20049;-72
2023/05/29 05:01:35;;;;;;;7.80;4.93;;;;;;;;;;5035033;28;20046;-70
2023/05/29 05:04:01;;;;;;;12.38;5.20;;;;;;;;;;5001342;28;20122;-70
2023/05/29 05:06:26;;;;;;;8.55;5.10;;;;;;;;;;5033696;28;20179;-71
2023/05/29 05:08:52;;;;;;;12.05;5.45;;;;;;;;;;5021349;28;20057;-71
2023/05/29 05:11:20;;;;;;;7.13;4.60;;;;;;;;;;5021525;28;20187;-71
2023/05/29 05:13:46;;;;;;;7.80;4.85;;;;;;;;;;5021516;28;20041;-71
2023/05/29 05:16:12;;;;;;;8.13;5.13;;;;;;;;;;5037245;28;20044;-72
2023/05/29 05:18:38;;;;;;;10.10;4.97;;;;;;;;;;5004340;28;20399;-73
2023/05/29 05:21:07;;;;;;;7.28;4.95;;;;;;;;;;5021540;28;20041;-73
2023/05/29 05:23:33;;;;;;;8.57;5.15;;;;;;;;;;5021132;28;20052;-73
2023/05/29 05:25:59;;;;;;;13.57;5.00;;;;;;;;;;5021359;28;20206;-73
2023/05/29 05:28:25;;;;;;;13.50;5.88;;;;;;;;;;5019335;28;20041;-70
2023/05/29 05:30:51;;;;;;;8.88;5.15;;;;;;;;;;5035551;28;20070;-69
2023/05/29 05:33:22;;;;;;;8.20;5.05;;;;;;;;;;5036912;28;20100;-70
2023/05/29 05:35:48;;;;;;;8.10;4.63;;;;;;;;;;5036690;28;20124;-70
2023/05/29 05:38:14;;;;;;;11.43;5.32;;;;;;;;;;5020364;28;20053;-70
2023/05/29 05:40:40;;;;;;;9.38;4.85;;;;;;;;;;5020126;28;20106;-70
2023/05/29 05:43:13;;;;;;;9.05;5.40;;;;;;;;;;5036685;28;20061;-71
2023/05/29 05:46:10;;;;;;;10.95;5.65;;;;;;;;;;5013285;28;20053;-70
2023/05/29 05:48:36;;;;;;;10.82;5.28;;;;;;;;;;5036151;28;20095;-70
2023/05/29 05:51:02;;;;;;;11.70;5.53;;;;;;;;;;5019165;28;20065;-70
2023/05/29 05:53:28;;;;;;;9.85;5.40;;;;;;;;;;5036296;28;20073;-70
2023/05/29 05:55:54;;;;;;;8.98;5.25;;;;;;;;;;5022354;28;20213;-69
2023/05/29 05:58:20;;;;;;;10.35;6.18;;;;;;;;;;5021483;28;20045;-70
2023/05/29 06:00:46;;;;;;;9.38;5.53;;;;;;;;;;5035358;28;20048;-69
2023/05/29 06:03:11;;;;;;;13.38;4.45;;;;;;;;;;5035817;28;20045;-70
2023/05/29 06:05:52;;;;;;;8.73;5.30;;;;;;;;;;5019806;28;20041;-70
2023/05/29 06:08:17;;;;;;;9.93;5.07;;;;;;;;;;5019991;28;20138;-70
2023/05/29 06:10:43;;;;;;;10.38;5.38;;;;;;;;;;5035882;28;20136;-70
2023/05/29 06:13:09;;;;;;;9.13;4.85;;;;;;;;;;5014879;28;20056;-70
2023/05/29 06:15:43;;;;;;;7.78;5.30;;;;;;;;;;5018008;28;20041;-71
2023/05/29 06:18:09;;;;;;;8.38;5.28;;;;;;;;;;5033141;28;20060;-70
2023/05/29 06:20:34;;;;;;;12.05;5.30;;;;;;;;;;5034826;28;20045;-71
2023/05/29 06:23:01;;;;;;;10.18;5.32;;;;;;;;;;5016873;28;20410;-70
2023/05/29 06:25:32;;;;;;;12.00;5.40;;;;;;;;;;5035083;28;20045;-70
2023/05/29 06:28:02;;;;;;;10.27;5.50;;;;;;;;;;5019432;28;20034;-73
2023/05/29 06:30:28;;;;;;;11.93;5.25;;;;;;;;;;5019585;28;20296;-71
2023/05/29 06:32:54;;;;;;;7.60;4.65;;;;;;;;;;5018771;28;20473;-71
2023/05/29 06:35:25;;;;;;;7.53;5.22;;;;;;;;;;5018099;28;20049;-71
2023/05/29 06:37:50;;;;;;;11.52;4.90;;;;;;;;;;5016257;28;20095;-71
2023/05/29 06:40:16;;;;;;;9.60;4.90;;;;;;;;;;5034592;28;20095;-71
2023/05/29 06:42:44;;;;;;;9.27;5.03;;;;;;;;;;5034773;28;20053;-71
2023/05/29 06:45:13;;;;;;;7.72;5.22;;;;;;;;;;5016931;28;20073;-71
2023/05/29 06:47:40;;;;;;;8.00;5.30;;;;;;;;;;5020002;28;20651;-71
2023/05/29 06:50:06;;;;;;;6.75;4.70;;;;;;;;;;5027244;28;20045;-71
2023/05/29 06:52:32;;;;;;;9.73;5.25;;;;;;;;;;5018238;28;20038;-71
2023/05/29 06:55:21;;;;;;;7.38;4.53;;;;;;;;;;5017128;28;20421;-71
2023/05/29 06:57:46;;;;;;;8.10;5.47;;;;;;;;;;5034462;28;20490;-71
2023/05/29 07:00:12;;;;;;;8.80;5.10;;;;;;;;;;5023573;28;20501;-70
2023/05/29 07:02:44;;;;;;;7.75;5.13;;;;;;;;;;5034695;28;20050;-70
2023/05/29 07:05:10;;;;;;;11.10;5.60;;;;;;;;;;5017226;28;20046;-71
2023/05/29 07:07:36;;;;;;;8.75;4.60;;;;;;;;;;5034132;28;20132;-70
2023/05/29 07:10:02;;;;;;;10.13;5.18;;;;;;;;;;5018980;28;20098;-72
2023/05/29 07:12:28;;;;;;;8.77;4.97;;;;;;;;;;5016161;28;20045;-71
2023/05/29 07:14:54;;;;;;;10.15;5.60;;;;;;;;;;5017383;28;20099;-71
2023/05/29 07:17:19;;;;;;;12.27;5.15;;;;;;;;;;5030643;28;20045;-71
2023/05/29 07:19:49;;;;;;;9.63;5.35;;;;;;;;;;5032069;28;20037;-71
2023/05/29 07:22:16;;;;;;;10.32;5.43;;;;;;;;;;5019933;28;20049;-71
2023/05/29 07:24:41;;;;;;;6.63;5.30;;;;;;;;;;5017925;28;20053;-72
2023/05/29 07:27:06;;;;;;;9.05;4.88;;;;;;;;;;5035501;28;20048;-72
2023/05/29 07:29:33;;;;;;;10.77;5.00;;;;;;;;;;5033488;28;20474;-71
2023/05/29 07:31:59;;;;;;;12.20;5.47;;;;;;;;;;5018056;28;20517;-71
2023/05/29 07:34:25;;;;;;;7.15;4.80;;;;;;;;;;5035192;28;20094;-71
2023/05/29 07:37:00;;;;;;;8.63;5.00;;;;;;;;;;5018972;28;20045;-71
2023/05/29 07:39:25;;;;;;;9.57;4.93;;;;;;;;;;5020026;28;20048;-70
2023/05/29 07:41:52;;;;;;;6.70;4.90;;;;;;;;;;5002362;28;20477;-69
2023/05/29 07:44:18;;;;;;;9.07;5.43;;;;;;;;;;5034598;28;20049;-72
2023/05/29 07:46:44;;;;;;;7.25;5.03;;;;;;;;;;5018927;28;20513;-72
2023/05/29 07:49:32;;;;;;;11.70;4.93;;;;;;;;;;5016376;28;20401;-72
2023/05/29 07:51:58;;;;;;;8.18;4.60;;;;;;;;;;5017052;28;20042;-72
2023/05/29 07:54:24;;;;;;;11.68;4.97;;;;;;;;;;5035164;28;20592;-69
2023/05/29 07:56:49;;;;;;;7.35;5.05;;;;;;;;;;5018415;28;20042;-70
2023/05/29 07:59:16;;;;;;;11.73;4.97;;;;;;;;;;5035149;28;21226;-70
2023/05/29 08:01:44;;;;;;;9.18;4.78;;;;;;;;;;5019087;28;20048;-70
2023/05/29 08:04:20;;;;;;;13.30;4.85;;;;;;;;;;5017543;28;20569;-70
2023/05/29 08:06:46;;;;;;;11.45;5.20;;;;;;;;;;5017235;28;20057;-70
2023/05/29 08:09:12;;;;;;;6.65;4.10;;;;;;;;;;5033354;28;20056;-70
2023/05/29 08:11:38;;;;;;;9.32;5.40;;;;;;;;;;5035346;28;20052;-69
2023/05/29 08:14:03;;;;;;;7.88;4.80;;;;;;;;;;5034057;28;20049;-70
2023/05/29 08:16:30;;;;;;;8.98;4.82;;;;;;;;;;5034659;28;20048;-69
2023/05/29 08:18:56;;;;;;;7.47;4.13;;;;;;;;;;5019288;28;20038;-70
2023/05/29 08:21:21;;;;;;;10.70;4.95;;;;;;;;;;5017385;28;20044;-69
2023/05/29 08:23:47;;;;;;;7.75;4.10;;;;;;;;;;5017152;28;20051;-70
2023/05/29 08:26:13;;;;;;;6.50;4.10;;;;;;;;;;5017468;28;20042;-71
2023/05/29 08:28:38;;;;;;;9.88;4.28;;;;;;;;;;5017120;28;20103;-71
2023/05/29 08:31:04;;;;;;;8.27;4.45;;;;;;;;;;5017687;28;20049;-72
2023/05/29 08:33:30;;;;;;;8.77;4.50;;;;;;;;;;5017683;28;20041;-71
2023/05/29 08:35:58;;;;;;;11.73;5.22;;;;;;;;;;5015889;28;20041;-71
2023/05/29 08:38:25;;;;;;;11.57;4.47;;;;;;;;;;5018021;28;20643;-71
2023/05/29 08:40:50;;;;;;;8.85;4.80;;;;;;;;;;5017390;28;20045;-72
2023/05/29 08:43:22;;;;;;;9.88;4.70;;;;;;;;;;5019780;28;21156;-72
2023/05/29 08:45:52;;;;;;;9.70;4.53;;;;;;;;;;5019083;28;20387;-72
2023/05/29 08:48:19;;;;;;;7.20;4.45;;;;;;;;;;5019048;28;20049;-73
2023/05/29 08:50:48;;;;;;;9.95;4.80;;;;;;;;;;5017801;28;20120;-73
2023/05/29 08:53:15;;;;;;;7.82;4.43;;;;;;;;;;5019001;28;20045;-73
2023/05/29 08:55:41;;;;;;;5.57;4.10;;;;;;;;;;5020426;28;20049;-72
2023/05/29 08:58:07;;;;;;;9.35;4.93;;;;;;;;;;5020137;28;20050;-71
2023/05/29 09:00:33;;;;;;;10.02;4.68;;;;;;;;;;5018223;28;20096;-73
2023/05/29 09:03:02;;;;;;;5.38;3.97;;;;;;;;;;5020723;28;20041;-71
2023/05/29 09:05:29;;;;;;;6.05;3.83;;;;;;;;;;5018871;28;20107;-73
2023/05/29 09:07:55;;;;;;;11.50;4.60;;;;;;;;;;5019828;28;20601;-72
2023/05/29 09:10:22;;;;;;;7.97;4.57;;;;;;;;;;5022998;28;20041;-72
2023/05/29 09:12:49;;;;;;;9.75;4.15;;;;;;;;;;5022930;28;20048;-72
2023/05/29 09:15:22;;;;;;;10.00;4.35;;;;;;;;;;5023539;28;20513;-73
2023/05/29 09:17:52;;;;;;;9.27;4.10;;;;;;;;;;5021453;28;20167;-72
2023/05/29 09:20:19;;;;;;;6.78;4.20;;;;;;;;;;5021357;28;20045;-72
2023/05/29 09:22:58;;;;;;;7.88;4.43;;;;;;;;;;5018886;28;20061;-72
2023/05/29 09:25:26;;;;;;;7.43;4.15;;;;;;;;;;5021577;28;20068;-73
2023/05/29 09:27:57;;;;;;;11.77;4.60;;;;;;;;;;5022360;28;20041;-73
2023/05/29 09:30:39;;;;;;;6.03;3.53;;;;;;;;;;5021543;28;20148;-71
2023/05/29 09:33:10;;;;;;;6.07;3.92;;;;;;;;;;5034775;28;20049;-72
2023/05/29 09:35:40;;;;;;;5.97;4.13;;;;;;;;;;5021395;28;20115;-73
2023/05/29 09:38:08;;;;;;;7.20;4.17;;;;;;;;;;5022606;28;20049;-71
2023/05/29 09:40:35;;;;;;;6.88;3.85;;;;;;;;;;5020987;28;20041;-71
2023/05/29 09:43:09;;;;;;;4.30;3.80;;;;;;;;;;5022179;28;20975;-72
2023/05/29 09:45:46;;;;;;;6.45;3.83;;;;;;;;;;5020153;28;20313;-71
2023/05/29 09:48:16;;;;;;;9.82;4.35;;;;;;;;;;5022407;28;20072;-70
2023/05/29 09:50:47;;;;;;;4.82;3.75;;;;;;;;;;5020972;28;20352;-75
2023/05/29 09:53:21;;;;;;;7.38;4.32;;;;;;;;;;5021649;28;20053;-71
2023/05/29 09:55:48;;;;;;;6.82;4.47;;;;;;;;;;5022012;28;20136;-73
2023/05/29 09:58:15;;;;;;;9.15;4.10;;;;;;;;;;5021967;28;20052;-71
2023/05/29 10:00:45;;;;;;;6.28;3.58;;;;;;;;;;5021214;28;20478;-73
2023/05/29 10:03:14;;;;;;;5.30;3.50;;;;;;;;;;5020970;28;20045;-72
2023/05/29 10:05:40;;;;;;;6.60;3.30;;;;;;;;;;5020499;28;20106;-72
2023/05/29 10:08:11;;;;;;;5.80;3.25;;;;;;;;;;5022225;28;20041;-72
2023/05/29 10:10:38;;;;;;;7.22;3.95;;;;;;;;;;5022033;28;20490;-72
2023/05/29 10:13:06;;;;;;;4.32;3.38;;;;;;;;;;5006016;28;20049;-73
2023/05/29 10:15:33;;;;;;;5.25;3.58;;;;;;;;;;5020445;28;20071;-71
2023/05/29 10:18:16;;;;;;;5.93;4.10;;;;;;;;;;5021433;28;20041;-71
2023/05/29 10:20:44;;;;;;;11.52;4.13;;;;;;;;;;5016770;28;20050;-72
2023/05/29 10:23:11;;;;;;;5.60;3.63;;;;;;;;;;5019832;28;20413;-72
2023/05/29 10:25:38;;;;;;;6.50;4.00;;;;;;;;;;5020922;28;20045;-72
2023/05/29 10:28:04;;;;;;;5.90;3.63;;;;;;;;;;5020391;28;20049;-71
2023/05/29 10:30:45;;;;;;;7.05;4.07;;;;;;;;;;5019123;28;20405;-71
2023/05/29 10:33:42;;;;;;;6.67;3.70;;;;;;;;;;5021556;28;20050;-72
2023/05/29 10:36:37;;;;;;;5.45;3.90;;;;;;;;;;5020633;28;20046;-72
2023/05/29 10:39:02;;;;;;;6.70;3.47;;;;;;;;;;5018602;28;20507;-71
2023/05/29 10:41:29;;;;;;;7.43;3.67;;;;;;;;;;5021185;28;20092;-73
2023/05/29 10:43:55;;;;;;;8.35;4.05;;;;;;;;;;5018733;28;20041;-73
2023/05/29 10:46:20;;;;;;;8.00;3.65;;;;;;;;;;5019241;28;20095;-73
2023/05/29 10:48:49;;;;;;;6.20;3.30;;;;;;;;;;5019661;28;20045;-73
2023/05/29 10:51:26;;;;;;;6.00;3.60;;;;;;;;;;5021008;28;20050;-71
2023/05/29 10:53:52;;;;;;;6.57;3.42;;;;;;;;;;5020225;28;20685;-71
2023/05/29 10:56:23;;;;;;;7.15;3.60;;;;;;;;;;5019506;28;20857;-72
2023/05/29 10:58:57;;;;;;;8.32;3.42;;;;;;;;;;5018657;28;20123;-73
2023/05/29 11:01:26;;;;;;;4.40;3.25;;;;;;;;;;5019016;28;20474;-73
2023/05/29 11:04:13;;;;;;;5.38;3.28;;;;;;;;;;5019906;28;20099;-71
2023/05/29 11:06:39;;;;;;;5.10;2.95;;;;;;;;;;5016818;28;20052;-72
2023/05/29 11:09:08;;;;;;;4.28;3.45;;;;;;;;;;5017413;28;20061;-71
2023/05/29 11:11:36;;;;;;;3.78;3.38;;;;;;;;;;5019435;28;20054;-72
2023/05/29 11:14:04;;;;;;;6.50;3.53;;;;;;;;;;5018532;28;20049;-72
2023/05/29 11:16:29;;;;;;;3.92;3.15;;;;;;;;;;5018707;28;20041;-71
2023/05/29 11:18:56;;;;;;;4.78;3.28;;;;;;;;;;5019357;28;20400;-72
2023/05/29 11:21:52;;;;;;;5.20;3.22;;;;;;;;;;5019667;28;20081;-71
2023/05/29 11:24:29;;;;;;;4.82;3.10;;;;;;;;;;5019651;28;20065;-72
2023/05/29 11:27:06;;;;;;;6.70;3.55;;;;;;;;;;5019829;28;20088;-70
2023/05/29 11:29:31;;;;;;;4.80;3.20;;;;;;;;;;5019953;28;20041;-71
2023/05/29 11:32:10;;;;;;;6.40;3.50;;;;;;;;;;5018630;28;20048;-72
2023/05/29 11:34:40;;;;;;;6.57;3.67;;;;;;;;;;5018509;28;20056;-72
2023/05/29 11:37:06;;;;;;;7.65;3.55;;;;;;;;;;5018909;28;20041;-72
2023/05/29 11:39:35;;;;;;;7.97;3.28;;;;;;;;;;5018298;28;20095;-71
2023/05/29 11:42:01;;;;;;;7.97;3.55;;;;;;;;;;5017770;28;20052;-72
2023/05/29 11:44:27;;;;;;;5.70;3.13;;;;;;;;;;5018076;28;20042;-71
2023/05/29 11:47:03;;;;;;;5.07;3.40;;;;;;;;;;5034427;28;20049;-73
2023/05/29 11:49:30;;;;;;;5.15;3.60;;;;;;;;;;5017811;28;20191;-72
2023/05/29 11:52:11;;;;;;;4.88;3.35;;;;;;;;;;5019019;28;20053;-72
2023/05/29 11:54:37;;;;;;;5.57;3.60;;;;;;;;;;5016897;28;20490;-71
2023/05/29 11:57:05;;;;;;;5.57;3.05;;;;;;;;;;5017932;28;20053;-71
2023/05/29 11:59:34;;;;;;;5.35;3.13;;;;;;;;;;5017517;28;20098;-73
2023/05/29 12:02:02;;;;;;;5.40;3.20;;;;;;;;;;5018538;28;20144;-72
2023/05/29 12:04:28;;;;;;;5.18;3.00;;;;;;;;;;5016966;28;20513;-72
2023/05/29 12:06:53;;;;;;;3.92;2.55;;;;;;;;;;5035218;28;20053;-72
2023/05/29 12:09:29;;;;;;;5.55;2.80;;;;;;;;;;5019732;28;20674;-73
2023/05/29 12:12:04;;;;;;;4.30;3.17;;;;;;;;;;5019005;28;20049;-73
2023/05/29 12:14:30;;;;;;;4.97;3.22;;;;;;;;;;5014248;28;20516;-72
2023/05/29 12:16:56;;;;;;;4.43;3.30;;;;;;;;;;5018586;28;20050;-72
2023/05/29 12:19:21;;;;;;;3.67;2.55;;;;;;;;;;5017945;28;20064;-71
2023/05/29 12:21:47;;;;;;;3.95;2.70;;;;;;;;;;5019705;28;20037;-73
2023/05/29 12:24:13;;;;;;;3.85;3.03;;;;;;;;;;5019773;28;20044;-73
2023/05/29 12:26:39;;;;;;;6.53;3.47;;;;;;;;;;5016352;28;20045;-72
2023/05/29 12:29:05;;;;;;;5.57;3.10;;;;;;;;;;5022631;28;20053;-74
2023/05/29 12:31:32;;;;;;;4.75;2.88;;;;;;;;;;5022250;28;20382;-72
2023/05/29 12:34:14;;;;;;;7.72;2.85;;;;;;;;;;5017854;28;20138;-72
2023/05/29 12:36:41;;;;;;;7.00;3.53;;;;;;;;;;5018014;28;20087;-72
2023/05/29 12:39:10;;;;;;;4.78;3.28;;;;;;;;;;5019455;28;20893;-72
2023/05/29 12:41:37;;;;;;;6.15;3.67;;;;;;;;;;5002428;28;20049;-73
2023/05/29 12:44:04;;;;;;;4.32;3.00;;;;;;;;;;5019718;28;20124;-74
2023/05/29 12:46:38;;;;;;;6.65;3.55;;;;;;;;;;5017798;28;20052;-71
2023/05/29 12:49:14;;;;;;;10.13;3.40;;;;;;;;;;5018726;28;20049;-73
2023/05/29 12:51:41;;;;;;;4.63;3.30;;;;;;;;;;5018824;28;20053;-72
2023/05/29 12:54:07;;;;;;;4.03;3.33;;;;;;;;;;5019160;28;20411;-72
2023/05/29 12:56:32;;;;;;;5.35;3.35;;;;;;;;;;5018249;28;20512;-73
2023/05/29 12:58:58;;;;;;;5.15;3.53;;;;;;;;;;5018668;28;20071;-72
2023/05/29 13:01:24;;;;;;;7.00;3.47;;;;;;;;;;5034866;28;20433;-73
2023/05/29 13:03:49;;;;;;;8.43;3.50;;;;;;;;;;5019083;28;20460;-72
2023/05/29 13:06:15;;;;;;;4.63;3.40;;;;;;;;;;5019526;28;20045;-73
2023/05/29 13:08:40;;;;;;;6.13;3.38;;;;;;;;;;5016499;28;20464;-73
2023/05/29 13:11:06;;;;;;;6.32;3.47;;;;;;;;;;5018091;28;20080;-74
2023/05/29 13:13:32;;;;;;;5.60;3.10;;;;;;;;;;5019183;28;20091;-73
2023/05/29 13:15:57;;;;;;;4.45;3.38;;;;;;;;;;5018612;28;20045;-72
2023/05/29 13:18:23;;;;;;;7.25;3.60;;;;;;;;;;5017633;28;20536;-73
2023/05/29 13:20:48;;;;;;;7.13;3.20;;;;;;;;;;5014436;28;20073;-73
2023/05/29 13:23:13;;;;;;;6.50;3.55;;;;;;;;;;5018714;28;20120;-74
2023/05/29 13:25:39;;;;;;;5.90;3.13;;;;;;;;;;5019536;28;20041;-72
2023/05/29 13:28:05;;;;;;;5.68;3.00;;;;;;;;;;5018324;28;20049;-73
2023/05/29 13:30:31;;;;;;;4.63;3.22;;;;;;;;;;5020471;28;20041;-73
2023/05/29 13:32:56;;;;;;;6.50;3.20;;;;;;;;;;5020463;28;20049;-72
2023/05/29 13:35:22;;;;;;;5.95;3.47;;;;;;;;;;5008535;28;20041;-73
2023/05/29 13:37:47;;;;;;;5.57;3.40;;;;;;;;;;5024433;28;20045;-72
2023/05/29 13:40:13;;;;;;;6.22;3.35;;;;;;;;;;5020039;28;20080;-72
2023/05/29 13:42:39;;;;;;;5.10;3.40;;;;;;;;;;5021372;28;20046;-73
2023/05/29 13:45:08;;;;;;;7.38;3.17;;;;;;;;;;5022256;28;20061;-73
2023/05/29 13:47:35;;;;;;;5.53;3.40;;;;;;;;;;5023850;28;20767;-73
2023/05/29 13:50:02;;;;;;;5.07;2.97;;;;;;;;;;5021679;28;20065;-74
2023/05/29 13:52:27;;;;;;;5.80;3.80;;;;;;;;;;5016284;28;20056;-73
2023/05/29 13:54:53;;;;;;;9.07;3.55;;;;;;;;;;5003993;28;20041;-74
2023/05/29 13:57:19;;;;;;;4.13;3.35;;;;;;;;;;5023415;28;20045;-73
2023/05/29 13:59:44;;;;;;;4.60;3.10;;;;;;;;;;5023228;28;20085;-74
2023/05/29 14:02:11;;;;;;;4.47;3.22;;;;;;;;;;5022602;28;20044;-73
2023/05/29 14:04:38;;;;;;;5.05;2.97;;;;;;;;;;5021397;28;20045;-75
2023/05/29 14:07:04;;;;;;;5.60;3.33;;;;;;;;;;5022447;28;20064;-73
2023/05/29 14:09:29;;;;;;;4.80;3.15;;;;;;;;;;5023083;28;20064;-73
2023/05/29 14:11:57;;;;;;;5.40;3.33;;;;;;;;;;5024968;28;20049;-74
2023/05/29 14:14:22;;;;;;;4.38;3.20;;;;;;;;;;5021230;28;20061;-74
2023/05/29 14:16:49;;;;;;;5.43;3.40;;;;;;;;;;5020047;28;20053;-74
2023/05/29 14:19:14;;;;;;;3.78;3.05;;;;;;;;;;5021743;28;20053;-74
2023/05/29 14:21:40;;;;;;;5.07;3.00;;;;;;;;;;5020731;28;20041;-74
2023/05/29 14:24:07;;;;;;;5.30;3.00;;;;;;;;;;5019809;28;20041;-74
2023/05/29 14:26:32;;;;;;;6.35;3.40;;;;;;;;;;5020444;28;20045;-74
2023/05/29 14:28:58;;;;;;;4.93;3.35;;;;;;;;;;5022237;28;20402;-74
2023/05/29 14:31:23;;;;;;;5.18;3.35;;;;;;;;;;5023157;28;20094;-74
2023/05/29 14:33:49;;;;;;;5.10;3.35;;;;;;;;;;5022229;28;20402;-69
2023/05/29 14:36:14;;;;;;;7.40;4.00;;;;;;;;;;5022668;28;20045;-72
2023/05/29 14:38:41;;;;;;;7.50;3.17;;;;;;;;;;5021158;28;20543;-72
2023/05/29 14:41:06;;;;;;;3.78;2.83;;;;;;;;;;5020076;28;20061;-73
2023/05/29 14:43:32;;;;;;;5.53;3.00;;;;;;;;;;5019264;28;20041;-72
2023/05/29 14:45:57;;;;;;;3.85;2.80;;;;;;;;;;5019384;28;21142;-71